Cerise — OR8270 — position and weather

sailwx.info

Track history (hours):
 
Tides and Currents Weather Stations Pressure Air Temp Water Temp Dewpoint Dewpoint Depression Visibility Wind Speed Wind Dir Waves Ship Positions

Cerise

Last reported at 2017-Nov-25 11:27 UTC. Time now 2017-Dec-12 20:09 UTC.
Position N 37°45' W 008°53'.
Warning: this ship's position is 17 days out of date.

Length 10 m.

Type: Sailing vessel. MMSI: 205827010.

Date/timePositionNaut miles runAvg speedWind from/ knotsBaromVisibWave heightAir tempDewpointWater temp
2017-Nov-25 11:27N 37°45' W 008°53'2 4.9
2017-Nov-25 11:00N 37°47' W 008°53'2 5.0
2017-Nov-25 10:30N 37°50' W 008°53'2 4.8
2017-Nov-25 10:00N 37°52' W 008°53'2 4.8
2017-Nov-25 09:30N 37°54' W 008°52'2 4.8
2017-Nov-25 09:00N 37°57' W 008°52'0 0.7
2017-Nov-25 08:28N 37°57' W 008°52'0 0.0
2017-Nov-25 07:58N 37°57' W 008°52'  
2017-Nov-19 15:51N 38°26' W 009°06'0 0.0
2017-Nov-19 14:57N 38°26' W 009°06'0 0.0
2017-Nov-19 12:27N 38°26' W 009°07'1 1.5
2017-Nov-19 12:00N 38°26' W 009°07'2 3.7
2017-Nov-19 11:30N 38°25' W 009°08'2 3.8
2017-Nov-19 10:54N 38°24' W 009°11'2 4.0
2017-Nov-19 10:30N 38°24' W 009°13'2 4.1
2017-Nov-19 09:59N 38°26' W 009°15'3 6.2
2017-Nov-19 09:30N 38°29' W 009°17'3 6.0
2017-Nov-19 08:56N 38°32' W 009°18'2 4.9
2017-Nov-19 08:29N 38°34' W 009°20'2 5.0
2017-Nov-19 08:00N 38°36' W 009°21'3 5.8
2017-Nov-19 07:28N 38°39' W 009°23'3 5.1
2017-Nov-19 06:58N 38°41' W 009°24'1 0.0
2017-Nov-17 13:56N 38°42' W 009°25'  
Track history (hours):
 
Tides and Currents Weather Stations Pressure Air Temp Water Temp Dewpoint Dewpoint Depression Visibility Wind Speed Wind Dir Waves Ship Positions

Cerise

Last reported at 2017-Nov-25 11:27 UTC. Time now 2017-Dec-12 20:09 UTC.
Position N 37°45' W 008°53'.
Warning: this ship's position is 17 days out of date.

Length 10 m.

Type: Sailing vessel. MMSI: 205827010.

Date/timePositionNaut miles runAvg speedWind from/ knotsBaromVisibWave heightAir tempDewpointWater temp
2017-Nov-25 11:27N 37°45' W 008°53'2 4.9
2017-Nov-25 11:00N 37°47' W 008°53'2 5.0
2017-Nov-25 10:30N 37°50' W 008°53'2 4.8
2017-Nov-25 10:00N 37°52' W 008°53'2 4.8
2017-Nov-25 09:30N 37°54' W 008°52'2 4.8
2017-Nov-25 09:00N 37°57' W 008°52'0 0.7
2017-Nov-25 08:28N 37°57' W 008°52'0 0.0
2017-Nov-25 07:58N 37°57' W 008°52'  
2017-Nov-19 15:51N 38°26' W 009°06'0 0.0
2017-Nov-19 14:57N 38°26' W 009°06'0 0.0
2017-Nov-19 12:27N 38°26' W 009°07'1 1.5
2017-Nov-19 12:00N 38°26' W 009°07'2 3.7
2017-Nov-19 11:30N 38°25' W 009°08'2 3.8
2017-Nov-19 10:54N 38°24' W 009°11'2 4.0
2017-Nov-19 10:30N 38°24' W 009°13'2 4.1
2017-Nov-19 09:59N 38°26' W 009°15'3 6.2
2017-Nov-19 09:30N 38°29' W 009°17'3 6.0
2017-Nov-19 08:56N 38°32' W 009°18'2 4.9
2017-Nov-19 08:29N 38°34' W 009°20'2 5.0
2017-Nov-19 08:00N 38°36' W 009°21'3 5.8
2017-Nov-19 07:28N 38°39' W 009°23'3 5.1
2017-Nov-19 06:58N 38°41' W 009°24'1 0.0
2017-Nov-17 13:56N 38°42' W 009°25'  

Dump ship's entire track history